Time;durP1;ratioP1;P1;durP2;ratioP2;P2;SDS_P1;SDS_P2;PMS_P1;PMS_P2;Temp;Humidity;BMP_temperature;BMP_pressure;BME280_temperature;BME280_humidity;BME280_pressure;Samples;Min_cycle;Max_cycle;Signal;HPM_P1;HPM_P2
2024/01/18 00:00:39;;;;;;;2.35;0.40;;;21.80;34.20;;;;;;5116040;28;20028;-37
2024/01/18 00:03:05;;;;;;;0.63;0.43;;;21.80;34.00;;;;;;5108469;28;20823;-36
2024/01/18 00:05:31;;;;;;;0.73;0.50;;;21.80;34.00;;;;;;5115288;28;20028;-35
2024/01/18 00:07:57;;;;;;;0.65;0.40;;;21.70;34.30;;;;;;5109303;28;20035;-37
2024/01/18 00:10:26;;;;;;;0.43;0.38;;;21.70;34.40;;;;;;5122692;27;20038;-36
2024/01/18 00:12:53;;;;;;;0.88;0.63;;;21.80;34.20;;;;;;5115824;28;20038;-34
2024/01/18 00:15:19;;;;;;;0.60;0.60;;;21.80;34.10;;;;;;5110414;27;20077;-38
2024/01/18 00:17:45;;;;;;;0.30;0.30;;;21.70;34.00;;;;;;5119044;28;20051;-37
2024/01/18 00:20:11;;;;;;;0.63;0.45;;;21.70;34.00;;;;;;5115646;28;20034;-36
2024/01/18 00:22:37;;;;;;;0.70;0.60;;;21.70;34.10;;;;;;5115888;28;20404;-38
2024/01/18 00:25:04;;;;;;;0.50;0.40;;;21.70;34.70;;;;;;5116335;28;20039;-37
2024/01/18 00:27:30;;;;;;;0.60;0.40;;;21.80;34.10;;;;;;5113888;28;20051;-37
2024/01/18 00:29:56;;;;;;;1.42;0.68;;;21.70;34.10;;;;;;5106451;28;20032;-37
2024/01/18 00:32:23;;;;;;;0.80;0.60;;;21.70;34.10;;;;;;5118270;28;20093;-36
2024/01/18 00:34:49;;;;;;;1.00;0.50;;;21.70;34.10;;;;;;5122937;28;20043;-35
2024/01/18 00:37:15;;;;;;;0.60;0.50;;;21.70;34.10;;;;;;5115131;28;20110;-36
2024/01/18 00:39:42;;;;;;;0.80;0.60;;;21.70;34.10;;;;;;5111079;28;20032;-36
2024/01/18 00:42:08;;;;;;;2.67;0.80;;;21.80;34.20;;;;;;5113740;28;20038;-39
2024/01/18 00:44:34;;;;;;;11.98;0.80;;;21.80;34.10;;;;;;5115882;28;20054;-36
2024/01/18 00:47:00;;;;;;;9.45;0.65;;;21.70;34.30;;;;;;5120790;28;20024;-38
2024/01/18 00:49:26;;;;;;;1.63;0.65;;;21.70;34.50;;;;;;5116688;28;20059;-34
2024/01/18 00:51:53;;;;;;;1.45;0.60;;;21.70;34.60;;;;;;5113080;28;20028;-33
2024/01/18 00:54:19;;;;;;;1.58;0.50;;;21.70;34.30;;;;;;5109406;28;20020;-36
2024/01/18 00:56:45;;;;;;;2.22;0.50;;;21.70;34.20;;;;;;5105913;28;20555;-34
2024/01/18 00:59:11;;;;;;;1.40;0.63;;;21.70;34.10;;;;;;5108464;28;20028;-35
2024/01/18 01:01:37;;;;;;;0.57;0.40;;;21.60;33.90;;;;;;5115880;28;20087;-36
2024/01/18 01:04:04;;;;;;;0.55;0.45;;;21.60;34.10;;;;;;5114970;28;20066;-36
2024/01/18 01:06:30;;;;;;;1.10;0.50;;;21.70;34.00;;;;;;5116448;28;20081;-37
2024/01/18 01:08:56;;;;;;;0.82;0.60;;;21.70;34.10;;;;;;5118694;28;20099;-38
2024/01/18 01:11:22;;;;;;;0.85;0.70;;;21.70;33.90;;;;;;5110351;28;20093;-36
2024/01/18 01:13:49;;;;;;;0.63;0.50;;;21.60;33.90;;;;;;5115610;28;20042;-38
2024/01/18 01:16:15;;;;;;;0.70;0.50;;;21.60;33.90;;;;;;5118841;28;20284;-40
2024/01/18 01:18:41;;;;;;;0.75;0.70;;;21.60;34.00;;;;;;5117041;28;20043;-35
2024/01/18 01:21:08;;;;;;;0.52;0.50;;;21.60;34.10;;;;;;5113264;28;20046;-38
2024/01/18 01:23:40;;;;;;;0.60;0.40;;;21.60;34.00;;;;;;5113890;28;20054;-35
2024/01/18 01:26:08;;;;;;;0.57;0.47;;;21.50;33.80;;;;;;5112355;28;20028;-41
2024/01/18 01:28:34;;;;;;;0.85;0.50;;;21.50;33.90;;;;;;5117975;28;20051;-37
2024/01/18 01:31:00;;;;;;;0.40;0.40;;;21.50;34.00;;;;;;5149968;27;20024;-37
2024/01/18 01:33:28;;;;;;;0.65;0.50;;;21.50;34.00;;;;;;5113506;28;20023;-37
2024/01/18 01:35:54;;;;;;;0.32;0.30;;;21.50;34.10;;;;;;5117974;28;20031;-38
2024/01/18 01:38:20;;;;;;;1.02;0.60;;;21.50;33.90;;;;;;5107968;28;20498;-34
2024/01/18 01:40:46;;;;;;;0.90;0.50;;;21.50;33.90;;;;;;5120153;28;20032;-36
2024/01/18 01:43:13;;;;;;;1.08;0.60;;;21.40;33.90;;;;;;5115033;28;20047;-35
2024/01/18 01:45:39;;;;;;;;;;;21.50;34.10;;;;;;5116946;28;20042;-37
2024/01/18 01:48:06;;;;;;;0.63;0.50;;;21.50;34.10;;;;;;5110749;28;19916;-36
2024/01/18 01:50:33;;;;;;;0.88;0.60;;;21.50;34.00;;;;;;5120728;28;20032;-37
2024/01/18 01:52:59;;;;;;;0.90;0.45;;;21.50;34.00;;;;;;5108968;28;20032;-35
2024/01/18 01:55:25;;;;;;;0.95;0.70;;;21.40;33.90;;;;;;5113596;28;20024;-36
2024/01/18 01:57:51;;;;;;;1.25;0.70;;;21.40;34.00;;;;;;5117932;28;20024;-36
2024/01/18 02:00:18;;;;;;;0.98;0.70;;;21.50;34.20;;;;;;5114875;28;20041;-38
2024/01/18 02:02:44;;;;;;;1.03;0.80;;;21.50;34.20;;;;;;5115786;28;20036;-37
2024/01/18 02:05:10;;;;;;;0.68;0.60;;;21.50;34.10;;;;;;5120210;28;20042;-36
2024/01/18 02:07:36;;;;;;;1.10;0.70;;;21.40;34.10;;;;;;5117013;28;20015;-38
2024/01/18 02:10:23;;;;;;;1.33;1.10;;;21.30;34.00;;;;;;5110092;28;20032;-39
2024/01/18 02:12:52;;;;;;;2.60;1.05;;;21.40;34.90;;;;;;5076399;28;20036;-36
2024/01/18 02:15:22;;;;;;;7.93;1.20;;;21.40;34.90;;;;;;5076949;28;20040;-36
2024/01/18 02:17:49;;;;;;;2.22;1.10;;;21.50;35.20;;;;;;5074797;28;20051;-37
2024/01/18 02:20:16;;;;;;;1.60;1.20;;;21.50;35.00;;;;;;5079307;28;20027;-37
2024/01/18 02:22:45;;;;;;;3.83;1.30;;;21.40;34.80;;;;;;5069896;28;20036;-36
2024/01/18 02:25:16;;;;;;;1.73;1.17;;;21.40;35.10;;;;;;5071473;28;20054;-38
2024/01/18 02:27:42;;;;;;;2.17;1.50;;;21.40;35.10;;;;;;5069919;28;20052;-38
2024/01/18 02:30:09;;;;;;;1.80;1.43;;;21.40;35.20;;;;;;5070158;28;20044;-37
2024/01/18 02:32:36;;;;;;;3.30;1.65;;;21.50;35.40;;;;;;5071173;28;20033;-38
2024/01/18 02:35:02;;;;;;;2.67;1.73;;;21.50;35.50;;;;;;5070583;28;20063;-38
2024/01/18 02:37:28;;;;;;;1.85;1.23;;;21.40;35.50;;;;;;5055261;28;20036;-37
2024/01/18 02:39:54;;;;;;;1.63;1.40;;;21.40;35.30;;;;;;5069089;28;20033;-35
2024/01/18 02:42:21;;;;;;;1.50;1.27;;;21.40;35.30;;;;;;5064147;28;20040;-38
2024/01/18 02:44:47;;;;;;;3.30;1.50;;;21.50;34.90;;;;;;5032862;28;20040;-37
2024/01/18 02:47:13;;;;;;;1.45;0.93;;;21.50;35.10;;;;;;5063883;28;20033;-35
2024/01/18 02:49:39;;;;;;;4.18;1.60;;;21.50;35.10;;;;;;5081780;28;20123;-34
2024/01/18 02:52:06;;;;;;;4.80;1.60;;;21.40;35.50;;;;;;5110141;28;20043;-36
2024/01/18 02:54:32;;;;;;;2.43;1.67;;;21.40;36.40;;;;;;5114042;28;20043;-42
2024/01/18 02:56:58;;;;;;;1.95;1.55;;;21.50;35.80;;;;;;5112773;28;20066;-36
2024/01/18 02:59:24;;;;;;;2.10;1.70;;;21.50;35.90;;;;;;5108929;28;21849;-38
2024/01/18 03:01:51;;;;;;;2.60;1.65;;;21.50;35.60;;;;;;5112039;28;20408;-38
2024/01/18 03:04:17;;;;;;;2.40;1.52;;;21.50;35.30;;;;;;5111856;28;20042;-37
2024/01/18 03:06:44;;;;;;;1.88;1.50;;;21.40;35.20;;;;;;5113342;28;20141;-36
2024/01/18 03:09:12;;;;;;;1.77;1.38;;;21.40;35.30;;;;;;5110048;28;20054;-37
2024/01/18 03:11:38;;;;;;;1.90;1.52;;;21.40;35.90;;;;;;5119056;28;20040;-34
2024/01/18 03:14:05;;;;;;;2.30;1.48;;;21.50;35.50;;;;;;5111965;28;20864;-37
2024/01/18 03:16:32;;;;;;;3.00;1.47;;;21.50;35.40;;;;;;5114536;28;20114;-37
2024/01/18 03:18:58;;;;;;;3.92;1.55;;;21.50;35.40;;;;;;5106411;28;20048;-33
2024/01/18 03:21:45;;;;;;;3.53;1.58;;;21.40;35.60;;;;;;5054478;28;20037;-37
2024/01/18 03:24:12;;;;;;;2.33;1.40;;;21.40;35.60;;;;;;5052300;28;20128;-33
2024/01/18 03:26:39;;;;;;;2.13;1.65;;;21.50;35.50;;;;;;5053362;28;20643;-34
2024/01/18 03:29:05;;;;;;;2.40;1.45;;;21.50;35.40;;;;;;5053030;28;20829;-36
2024/01/18 03:31:32;;;;;;;1.60;1.42;;;21.50;35.30;;;;;;5062206;28;20032;-37
2024/01/18 03:33:59;;;;;;;3.60;1.42;;;21.50;36.00;;;;;;5048336;28;20029;-36
2024/01/18 03:36:25;;;;;;;1.63;1.38;;;21.40;35.70;;;;;;5063163;28;20085;-37
2024/01/18 03:38:52;;;;;;;1.80;1.40;;;21.40;35.60;;;;;;5051252;28;20033;-32
2024/01/18 03:41:18;;;;;;;2.78;1.20;;;21.50;35.50;;;;;;5038666;28;20032;-36
2024/01/18 03:43:45;;;;;;;1.60;1.50;;;21.50;35.30;;;;;;5054066;28;20045;-38
2024/01/18 03:46:16;;;;;;;1.97;1.57;;;21.50;35.20;;;;;;5054294;28;20049;-38
2024/01/18 03:48:43;;;;;;;1.35;1.25;;;21.50;35.20;;;;;;5053082;28;20036;-37
2024/01/18 03:51:09;;;;;;;1.95;1.70;;;21.50;35.10;;;;;;5053972;28;20040;-37
2024/01/18 03:53:43;;;;;;;1.23;1.13;;;21.50;35.10;;;;;;5054611;28;20226;-38
2024/01/18 03:56:12;;;;;;;1.85;1.60;;;21.50;35.20;;;;;;5052330;28;20112;-36
2024/01/18 03:58:42;;;;;;;1.83;1.40;;;21.50;35.10;;;;;;5079629;28;20043;-36
2024/01/18 04:01:08;;;;;;;1.67;1.27;;;21.50;35.00;;;;;;5114066;28;20096;-34
2024/01/18 04:03:34;;;;;;;1.73;1.55;;;21.50;35.00;;;;;;5115951;28;20055;-37
2024/01/18 04:06:00;;;;;;;1.98;1.40;;;21.50;35.00;;;;;;5116041;28;20035;-37
2024/01/18 04:08:26;;;;;;;1.40;1.30;;;21.40;34.90;;;;;;5117606;28;20095;-35
2024/01/18 04:10:52;;;;;;;1.67;1.20;;;21.40;35.00;;;;;;5125103;27;20019;-36
2024/01/18 04:13:18;;;;;;;1.40;1.30;;;21.50;35.10;;;;;;5113559;27;20024;-40
2024/01/18 04:15:44;;;;;;;1.80;1.27;;;21.50;35.50;;;;;;5115677;28;20027;-36
2024/01/18 04:18:11;;;;;;;1.40;1.30;;;21.50;34.80;;;;;;5118661;27;20131;-36
2024/01/18 04:20:37;;;;;;;2.92;1.13;;;21.50;34.90;;;;;;5112746;28;20028;-38
2024/01/18 04:23:03;;;;;;;2.17;1.23;;;21.40;35.00;;;;;;5115319;28;20110;-37
2024/01/18 04:25:29;;;;;;;2.50;1.10;;;21.40;35.00;;;;;;5115151;28;20028;-38
2024/01/18 04:27:55;;;;;;;1.25;1.00;;;21.50;35.00;;;;;;5114110;28;20424;-38
2024/01/18 04:30:21;;;;;;;1.88;1.00;;;21.50;34.90;;;;;;5119003;28;20024;-36
2024/01/18 04:32:48;;;;;;;1.40;1.15;;;21.50;34.80;;;;;;5118435;27;20042;-36
2024/01/18 04:35:14;;;;;;;1.90;1.17;;;21.50;34.70;;;;;;5118148;28;20024;-36
2024/01/18 04:37:41;;;;;;;1.23;0.98;;;21.50;34.80;;;;;;5116257;28;20024;-39
2024/01/18 04:40:08;;;;;;;1.55;1.10;;;21.40;34.80;;;;;;5110629;28;20035;-35
2024/01/18 04:42:34;;;;;;;1.23;0.82;;;21.50;34.80;;;;;;5115311;27;20028;-38
2024/01/18 04:45:01;;;;;;;1.40;1.13;;;21.50;34.80;;;;;;5115153;28;20039;-35
2024/01/18 04:47:27;;;;;;;1.00;0.90;;;21.50;34.80;;;;;;5116414;28;20015;-33
2024/01/18 04:49:53;;;;;;;1.17;1.00;;;21.50;34.70;;;;;;5112523;28;20062;-36
2024/01/18 04:52:20;;;;;;;1.20;1.05;;;21.50;34.70;;;;;;5106657;28;20143;-37
2024/01/18 04:54:46;;;;;;;1.77;1.23;;;21.40;34.70;;;;;;5109106;28;20034;-38
2024/01/18 04:57:13;;;;;;;1.20;0.93;;;21.40;34.80;;;;;;5108760;28;20036;-38
2024/01/18 04:59:39;;;;;;;1.77;1.20;;;21.50;34.90;;;;;;5108297;28;20126;-38
2024/01/18 05:02:06;;;;;;;1.35;0.90;;;21.50;34.80;;;;;;5110875;28;20020;-36
2024/01/18 05:04:32;;;;;;;1.55;0.98;;;21.50;34.80;;;;;;5113312;28;20125;-34
2024/01/18 05:06:58;;;;;;;1.83;1.15;;;21.50;34.80;;;;;;5108291;28;20035;-37
2024/01/18 05:09:24;;;;;;;1.10;1.00;;;21.40;34.90;;;;;;5108429;28;20042;-34
2024/01/18 05:11:51;;;;;;;1.08;0.90;;;21.40;34.80;;;;;;5114908;28;20027;-36
2024/01/18 05:14:17;;;;;;;;;;;21.50;35.00;;;;;;5114304;28;20032;-37
2024/01/18 05:16:43;;;;;;;1.73;0.90;;;21.50;34.90;;;;;;5115399;28;19918;-36
2024/01/18 05:19:09;;;;;;;0.98;0.82;;;21.50;34.80;;;;;;5113412;28;20016;-35
2024/01/18 05:21:36;;;;;;;1.10;1.00;;;21.40;34.90;;;;;;5111608;28;20032;-36
2024/01/18 05:24:02;;;;;;;1.30;1.20;;;21.40;34.90;;;;;;5110168;28;20048;-36
2024/01/18 05:26:28;;;;;;;1.88;1.05;;;21.40;34.90;;;;;;5111277;28;20027;-36
2024/01/18 05:28:54;;;;;;;1.60;1.00;;;21.50;35.00;;;;;;5110237;28;20053;-36
2024/01/18 05:31:20;;;;;;;1.25;0.77;;;21.50;35.50;;;;;;5113949;28;20033;-37
2024/01/18 05:33:46;;;;;;;2.03;1.15;;;21.50;34.90;;;;;;5111107;28;20031;-37
2024/01/18 05:36:12;;;;;;;1.30;0.90;;;21.40;34.90;;;;;;5109458;28;20027;-35
2024/01/18 05:38:38;;;;;;;1.10;0.93;;;21.40;34.90;;;;;;5109887;28;20038;-35
2024/01/18 05:41:05;;;;;;;1.15;1.02;;;21.40;35.00;;;;;;5111943;28;20122;-38
2024/01/18 05:43:31;;;;;;;1.35;0.82;;;21.50;35.00;;;;;;5113217;28;20043;-34
2024/01/18 05:45:58;;;;;;;1.25;1.00;;;21.50;35.00;;;;;;5114192;28;20027;-36
2024/01/18 05:48:24;;;;;;;1.60;0.90;;;21.50;34.90;;;;;;5111211;28;20031;-33
2024/01/18 05:50:50;;;;;;;1.27;0.90;;;21.40;34.90;;;;;;5113407;28;20024;-37
2024/01/18 05:53:16;;;;;;;1.50;1.10;;;21.40;34.90;;;;;;5109284;28;20024;-36
2024/01/18 05:55:42;;;;;;;1.17;1.05;;;21.40;35.00;;;;;;5106342;28;20028;-35
2024/01/18 05:58:08;;;;;;;1.95;1.40;;;21.40;35.00;;;;;;5111008;28;20125;-36
2024/01/18 06:00:34;;;;;;;1.30;1.20;;;21.50;35.00;;;;;;5117385;28;20039;-35
2024/01/18 06:03:00;;;;;;;1.27;1.17;;;21.50;34.90;;;;;;5111803;28;20024;-34
2024/01/18 06:05:27;;;;;;;1.33;1.00;;;21.40;34.90;;;;;;5112884;28;20067;-38
2024/01/18 06:07:53;;;;;;;1.95;1.42;;;21.40;35.00;;;;;;5114291;28;20033;-35
2024/01/18 06:10:19;;;;;;;1.40;1.08;;;21.40;35.00;;;;;;5110276;28;20059;-35
2024/01/18 06:12:45;;;;;;;1.15;1.05;;;21.40;35.00;;;;;;5117549;28;20029;-36
2024/01/18 06:15:11;;;;;;;1.48;1.10;;;21.50;35.10;;;;;;5118721;28;20034;-35
2024/01/18 06:17:37;;;;;;;1.25;1.02;;;21.50;35.00;;;;;;5119784;28;20032;-37
2024/01/18 06:20:04;;;;;;;1.40;1.10;;;21.40;34.90;;;;;;5116608;28;20032;-36
2024/01/18 06:22:30;;;;;;;1.90;1.27;;;21.40;35.00;;;;;;5119324;28;20168;-38
2024/01/18 06:24:56;;;;;;;1.42;1.20;;;21.40;35.00;;;;;;5119204;28;20094;-36
2024/01/18 06:27:22;;;;;;;1.48;1.20;;;21.40;35.00;;;;;;5118808;28;20043;-38
2024/01/18 06:29:48;;;;;;;2.08;1.60;;;21.50;35.10;;;;;;5116324;28;20032;-38
2024/01/18 06:32:15;;;;;;;1.40;1.30;;;21.50;35.00;;;;;;5116780;28;20027;-38
2024/01/18 06:34:41;;;;;;;1.60;1.30;;;21.50;35.00;;;;;;5113730;28;20776;-38
2024/01/18 06:37:07;;;;;;;1.40;1.23;;;21.40;35.00;;;;;;5120106;28;20050;-39
2024/01/18 06:39:33;;;;;;;2.85;1.42;;;21.40;35.10;;;;;;5116655;28;20020;-35
2024/01/18 06:41:59;;;;;;;1.80;1.42;;;21.40;35.10;;;;;;5117197;28;20031;-39
2024/01/18 06:44:25;;;;;;;1.92;1.35;;;21.40;35.10;;;;;;5114378;28;20033;-38
2024/01/18 06:46:51;;;;;;;1.65;1.30;;;21.50;35.10;;;;;;5117738;28;20178;-38
2024/01/18 06:49:17;;;;;;;1.50;1.40;;;21.40;35.00;;;;;;5115808;28;20084;-37
2024/01/18 06:51:44;;;;;;;1.40;1.30;;;21.40;35.20;;;;;;5109982;28;20091;-38
2024/01/18 06:54:10;;;;;;;1.85;1.50;;;21.40;35.10;;;;;;5110510;28;20040;-38
2024/01/18 06:56:37;;;;;;;1.58;1.30;;;21.40;35.10;;;;;;5111513;28;20031;-35
2024/01/18 06:59:05;;;;;;;1.77;1.60;;;21.40;35.10;;;;;;5112200;28;20123;-37
2024/01/18 07:01:33;;;;;;;1.58;1.30;;;21.50;35.20;;;;;;5111153;28;20047;-36
2024/01/18 07:03:59;;;;;;;2.05;1.23;;;21.50;35.00;;;;;;5108034;28;20047;-35
2024/01/18 07:06:25;;;;;;;1.85;1.58;;;21.40;35.10;;;;;;5110673;28;20032;-37
2024/01/18 07:08:51;;;;;;;1.50;1.10;;;21.40;35.10;;;;;;5110017;28;20028;-36
2024/01/18 07:11:18;;;;;;;4.57;1.60;;;21.40;35.20;;;;;;5111018;28;20038;-36
2024/01/18 07:13:44;;;;;;;1.60;1.13;;;21.40;35.40;;;;;;5109283;28;20091;-36
2024/01/18 07:16:10;;;;;;;2.03;1.40;;;21.50;35.50;;;;;;5114930;28;20057;-38
2024/01/18 07:18:37;;;;;;;1.95;1.40;;;21.50;35.40;;;;;;5115875;28;20403;-38
2024/01/18 07:21:03;;;;;;;2.70;1.33;;;21.40;35.40;;;;;;5114872;28;20034;-36
2024/01/18 07:23:29;;;;;;;1.52;1.33;;;21.40;35.50;;;;;;5119286;28;20051;-37
2024/01/18 07:25:56;;;;;;;2.38;1.60;;;21.40;35.50;;;;;;5116668;28;20067;-38
2024/01/18 07:28:22;;;;;;;2.25;1.48;;;21.40;35.30;;;;;;5122118;28;20166;-39
2024/01/18 07:30:49;;;;;;;1.48;1.33;;;21.40;35.30;;;;;;5122064;28;20027;-38
2024/01/18 07:33:16;;;;;;;1.60;1.40;;;21.50;35.20;;;;;;5122248;27;20027;-37
2024/01/18 07:35:42;;;;;;;;;;;21.50;35.10;;;;;;5117741;28;20343;-39
2024/01/18 07:38:08;;;;;;;1.30;1.20;;;21.40;35.20;;;;;;5115949;28;19954;-36
2024/01/18 07:40:34;;;;;;;1.65;1.48;;;21.40;35.20;;;;;;5121625;28;20027;-38
2024/01/18 07:43:00;;;;;;;1.90;1.30;;;21.40;35.20;;;;;;5121347;28;20028;-38
2024/01/18 07:45:45;;;;;;;1.65;1.55;;;21.40;35.20;;;;;;5117189;28;20047;-36
2024/01/18 07:48:11;;;;;;;1.95;1.60;;;21.40;35.10;;;;;;5118022;28;20488;-37
2024/01/18 07:50:37;;;;;;;1.42;1.20;;;21.40;35.10;;;;;;5119646;28;20039;-36
2024/01/18 07:53:04;;;;;;;2.03;1.55;;;21.40;35.10;;;;;;5119560;28;20049;-35
2024/01/18 07:55:30;;;;;;;1.63;1.35;;;21.30;35.20;;;;;;5118437;28;20023;-38
2024/01/18 07:57:56;;;;;;;1.47;1.30;;;21.40;35.20;;;;;;5118472;28;20036;-38
2024/01/18 08:00:23;;;;;;;1.40;1.15;;;21.40;35.20;;;;;;5119176;28;20093;-32
2024/01/18 08:02:49;;;;;;;1.50;1.33;;;21.50;35.10;;;;;;5121560;28;20083;-34
2024/01/18 08:05:15;;;;;;;2.00;1.35;;;21.40;35.00;;;;;;5115501;28;20028;-34
2024/01/18 08:07:41;;;;;;;1.83;1.30;;;21.30;35.00;;;;;;5113596;28;20100;-37
2024/01/18 08:10:10;;;;;;;1.52;1.42;;;21.30;35.10;;;;;;5115547;28;20031;-36
2024/01/18 08:12:37;;;;;;;1.45;1.20;;;21.40;35.20;;;;;;5114854;28;20111;-38
2024/01/18 08:15:04;;;;;;;1.50;1.23;;;21.40;35.20;;;;;;5126105;27;20134;-35
2024/01/18 08:17:30;;;;;;;;;;;21.50;35.30;;;;;;5124699;27;20096;-35
2024/01/18 08:19:56;;;;;;;2.08;1.42;;;21.40;35.70;;;;;;5122784;28;19951;-34
2024/01/18 08:22:22;;;;;;;2.40;1.50;;;21.40;35.20;;;;;;5113126;28;20720;-35
2024/01/18 08:24:49;;;;;;;4.00;1.70;;;21.30;35.20;;;;;;5116218;28;20449;-36
2024/01/18 08:27:15;;;;;;;4.60;1.60;;;21.30;35.20;;;;;;5113073;28;20042;-38
2024/01/18 08:29:41;;;;;;;3.78;1.20;;;21.40;35.30;;;;;;5116321;28;20027;-36
2024/01/18 08:32:08;;;;;;;4.80;1.50;;;21.40;35.20;;;;;;5113073;28;20028;-36
2024/01/18 08:34:35;;;;;;;2.08;1.50;;;21.40;35.10;;;;;;5116119;28;20067;-35
2024/01/18 08:37:02;;;;;;;4.03;1.38;;;21.40;35.20;;;;;;5116230;28;20028;-35
2024/01/18 08:39:28;;;;;;;2.22;1.67;;;21.30;35.90;;;;;;5115458;27;20035;-36
2024/01/18 08:41:59;;;;;;;2.05;1.35;;;21.30;36.20;;;;;;5114491;28;20027;-35
2024/01/18 08:44:26;;;;;;;1.42;1.30;;;21.40;36.00;;;;;;5113501;28;20481;-38
2024/01/18 08:46:52;;;;;;;;;;;21.40;35.90;;;;;;5116588;28;20028;-37
2024/01/18 08:49:20;;;;;;;1.80;1.58;;;21.40;35.60;;;;;;5114341;28;19919;-38
2024/01/18 08:51:46;;;;;;;1.58;1.45;;;21.40;35.70;;;;;;5113426;27;20043;-37
2024/01/18 08:54:12;;;;;;;1.80;1.50;;;21.40;35.80;;;;;;5113487;28;20031;-36
2024/01/18 08:56:38;;;;;;;2.83;1.40;;;21.40;35.70;;;;;;5112491;28;20040;-36
2024/01/18 08:59:04;;;;;;;2.10;1.60;;;21.40;35.70;;;;;;5109188;28;20024;-38
2024/01/18 09:01:31;;;;;;;1.67;1.17;;;21.50;35.70;;;;;;5126309;27;20016;-38
2024/01/18 09:03:57;;;;;;;2.33;1.80;;;21.50;35.60;;;;;;5112677;28;20043;-36
2024/01/18 09:06:23;;;;;;;2.17;1.60;;;21.40;35.60;;;;;;5114906;28;20031;-36
2024/01/18 09:08:49;;;;;;;1.48;1.30;;;21.40;35.70;;;;;;5108416;28;20023;-35
2024/01/18 09:11:15;;;;;;;1.88;1.42;;;21.40;35.60;;;;;;5110657;28;20026;-37
2024/01/18 09:13:42;;;;;;;1.73;1.40;;;21.40;35.60;;;;;;5110356;28;20055;-36
2024/01/18 09:16:08;;;;;;;1.98;1.40;;;21.40;35.50;;;;;;5115165;28;20031;-37
2024/01/18 09:18:34;;;;;;;1.77;1.38;;;21.40;35.40;;;;;;5111734;28;20446;-38
2024/01/18 09:21:00;;;;;;;1.70;1.42;;;21.40;35.50;;;;;;5109090;28;20058;-36
2024/01/18 09:23:27;;;;;;;2.15;1.67;;;21.40;35.50;;;;;;5114875;28;20533;-38
2024/01/18 09:25:53;;;;;;;1.88;1.38;;;21.40;35.60;;;;;;5115046;28;20044;-38
2024/01/18 09:28:20;;;;;;;1.85;1.20;;;21.40;35.60;;;;;;5112619;28;20113;-38
2024/01/18 09:30:46;;;;;;;1.55;1.38;;;21.40;35.50;;;;;;5112581;28;20043;-36
2024/01/18 09:33:12;;;;;;;1.58;1.15;;;21.40;35.40;;;;;;5113001;28;20042;-37
2024/01/18 09:35:40;;;;;;;1.90;1.20;;;21.40;35.40;;;;;;5114529;28;20042;-37
2024/01/18 09:38:08;;;;;;;2.00;1.40;;;21.30;35.40;;;;;;5112878;28;20085;-36
2024/01/18 09:40:34;;;;;;;2.00;1.38;;;21.40;35.50;;;;;;5114495;28;20123;-38
2024/01/18 09:43:00;;;;;;;2.00;1.40;;;21.40;35.50;;;;;;5113465;28;20055;-38
2024/01/18 09:45:26;;;;;;;1.70;1.30;;;21.40;35.50;;;;;;5114229;28;20055;-37
2024/01/18 09:47:53;;;;;;;1.23;1.13;;;21.50;35.40;;;;;;5114139;28;20521;-37
2024/01/18 09:50:19;;;;;;;1.70;1.23;;;21.40;35.40;;;;;;5113465;28;20031;-38
2024/01/18 09:52:46;;;;;;;1.52;1.30;;;21.40;35.50;;;;;;5114782;27;20063;-39
2024/01/18 09:55:12;;;;;;;1.48;1.30;;;21.30;35.40;;;;;;5111257;28;20097;-39
2024/01/18 09:57:40;;;;;;;1.38;1.00;;;21.30;35.40;;;;;;5111026;28;20032;-37
2024/01/18 10:00:08;;;;;;;1.73;1.30;;;21.40;35.50;;;;;;5109635;28;20031;-38
2024/01/18 10:02:34;;;;;;;1.92;1.50;;;21.40;35.40;;;;;;5118878;27;20035;-34
2024/01/18 10:05:00;;;;;;;1.40;1.30;;;21.40;35.30;;;;;;5111758;28;20507;-38
2024/01/18 10:07:27;;;;;;;1.33;1.15;;;21.40;35.40;;;;;;5129353;27;20039;-39
2024/01/18 10:09:54;;;;;;;1.42;1.30;;;21.30;35.40;;;;;;5120834;28;20595;-33
2024/01/18 10:12:20;;;;;;;1.40;1.30;;;21.30;35.50;;;;;;5110433;28;20039;-38
2024/01/18 10:14:47;;;;;;;1.50;1.27;;;21.40;35.60;;;;;;5146392;27;20020;-38
2024/01/18 10:17:22;;;;;;;2.37;1.40;;;21.40;35.60;;;;;;5110665;28;20036;-35
2024/01/18 10:19:57;;;;;;;1.40;1.30;;;21.40;35.50;;;;;;5112081;28;20277;-38
2024/01/18 10:22:24;;;;;;;1.38;1.10;;;21.40;35.50;;;;;;5116778;28;20043;-36
2024/01/18 10:24:50;;;;;;;1.98;1.30;;;21.30;35.70;;;;;;5114604;28;20040;-37
2024/01/18 10:27:20;;;;;;;1.83;1.13;;;21.30;35.70;;;;;;5110422;28;21106;-37
2024/01/18 10:29:46;;;;;;;1.73;1.30;;;21.30;35.70;;;;;;5112257;28;20036;-37
2024/01/18 10:32:13;;;;;;;2.13;1.40;;;21.40;35.80;;;;;;5112738;28;20023;-38
2024/01/18 10:34:39;;;;;;;2.17;1.35;;;21.40;35.80;;;;;;5112520;28;20043;-37
2024/01/18 10:37:05;;;;;;;1.30;1.00;;;21.40;35.70;;;;;;5107316;28;20024;-38
2024/01/18 10:39:41;;;;;;;1.83;1.40;;;21.30;35.70;;;;;;5114061;28;20031;-37
2024/01/18 10:42:10;;;;;;;2.25;1.70;;;21.30;35.60;;;;;;5112350;28;20039;-37
2024/01/18 10:44:45;;;;;;;1.70;1.40;;;21.30;35.60;;;;;;5111605;27;20051;-36
2024/01/18 10:47:11;;;;;;;2.03;1.60;;;21.40;35.70;;;;;;5113768;28;20034;-37
2024/01/18 10:49:38;;;;;;;1.90;1.60;;;21.40;35.60;;;;;;5111736;28;20051;-37
2024/01/18 10:52:04;;;;;;;2.85;1.52;;;21.40;35.60;;;;;;5112456;28;20038;-37
2024/01/18 10:54:33;;;;;;;1.77;1.52;;;21.30;35.70;;;;;;5120671;28;20024;-35
2024/01/18 10:56:59;;;;;;;1.95;1.45;;;21.30;35.70;;;;;;5113887;28;20034;-38
2024/01/18 10:59:28;;;;;;;1.80;1.50;;;21.30;35.70;;;;;;5117808;28;20032;-37
2024/01/18 11:01:57;;;;;;;1.77;1.38;;;21.40;35.60;;;;;;5117159;28;20031;-35
2024/01/18 11:04:24;;;;;;;1.75;1.38;;;21.40;35.50;;;;;;5102677;28;20445;-36
2024/01/18 11:06:50;;;;;;;1.50;1.40;;;21.40;35.60;;;;;;5105300;28;20034;-34
2024/01/18 11:09:16;;;;;;;1.65;1.30;;;21.30;35.60;;;;;;5103690;28;20856;-36
2024/01/18 11:11:42;;;;;;;2.53;1.50;;;21.30;35.60;;;;;;5102567;28;20032;-38
2024/01/18 11:14:08;;;;;;;1.70;1.20;;;21.30;35.60;;;;;;5114663;28;20024;-38
2024/01/18 11:16:37;;;;;;;1.58;1.23;;;21.40;35.70;;;;;;5115896;28;20064;-38
2024/01/18 11:19:03;;;;;;;1.45;1.17;;;21.40;35.60;;;;;;5115730;28;20028;-35
2024/01/18 11:21:45;;;;;;;1.70;1.50;;;21.30;35.40;;;;;;5117807;28;20029;-34
2024/01/18 11:24:11;;;;;;;1.73;1.30;;;21.30;35.60;;;;;;5116367;28;20110;-37
2024/01/18 11:26:37;;;;;;;1.70;1.50;;;21.30;35.60;;;;;;5111356;28;20097;-38
2024/01/18 11:29:30;;;;;;;1.85;1.20;;;21.30;35.90;;;;;;5117370;28;20032;-39
2024/01/18 11:31:56;;;;;;;2.15;1.40;;;21.40;35.90;;;;;;5105705;28;20103;-37
2024/01/18 11:34:30;;;;;;;1.85;1.50;;;21.40;35.70;;;;;;5103664;28;20038;-33
2024/01/18 11:37:16;;;;;;;1.25;1.15;;;21.40;35.70;;;;;;5111053;28;20023;-36
2024/01/18 11:39:47;;;;;;;1.83;1.30;;;21.30;35.90;;;;;;5106587;28;20036;-39
2024/01/18 11:42:25;;;;;;;1.90;1.40;;;21.30;35.70;;;;;;5108153;28;20053;-38
2024/01/18 11:45:01;;;;;;;1.33;1.10;;;21.30;35.70;;;;;;5109278;28;20051;-38
2024/01/18 11:47:29;;;;;;;1.60;1.40;;;21.40;35.70;;;;;;5103421;28;20631;-37
2024/01/18 11:49:57;;;;;;;2.05;1.33;;;21.30;35.50;;;;;;5104564;28;20032;-32
2024/01/18 11:52:23;;;;;;;1.65;1.25;;;21.30;35.60;;;;;;5107134;28;20043;-36
2024/01/18 11:54:52;;;;;;;1.40;1.15;;;21.20;35.60;;;;;;5113890;28;20032;-33
2024/01/18 11:57:19;;;;;;;1.40;1.30;;;21.20;35.70;;;;;;5109912;28;20020;-37
2024/01/18 11:59:47;;;;;;;1.60;1.20;;;21.30;35.70;;;;;;5127485;28;20038;-38
2024/01/18 12:02:14;;;;;;;1.90;1.40;;;21.30;35.60;;;;;;5117928;28;20042;-36
2024/01/18 12:04:40;;;;;;;2.22;1.60;;;21.30;35.50;;;;;;5111161;28;20099;-35
2024/01/18 12:07:06;;;;;;;1.92;1.30;;;21.20;35.50;;;;;;5113359;28;20032;-39
2024/01/18 12:09:51;;;;;;;1.50;1.23;;;21.20;35.50;;;;;;5109688;28;20503;-37
2024/01/18 12:12:18;;;;;;;1.73;1.35;;;21.20;35.50;;;;;;5112603;28;20039;-38
2024/01/18 12:14:45;;;;;;;1.40;1.15;;;21.30;35.60;;;;;;5113480;28;20024;-37
2024/01/18 12:17:12;;;;;;;1.50;1.40;;;21.30;35.50;;;;;;5109775;28;20056;-37
2024/01/18 12:19:40;;;;;;;1.65;1.42;;;21.30;35.50;;;;;;5116376;28;20439;-38
2024/01/18 12:22:10;;;;;;;1.80;1.33;;;21.30;35.60;;;;;;5115319;28;20124;-39
2024/01/18 12:24:36;;;;;;;1.80;1.27;;;21.20;35.70;;;;;;5117756;28;20054;-36
2024/01/18 12:27:04;;;;;;;1.50;1.30;;;21.20;35.60;;;;;;5113128;28;20040;-37
2024/01/18 12:29:34;;;;;;;1.75;1.50;;;21.20;35.50;;;;;;5095091;28;20382;-35
2024/01/18 12:32:00;;;;;;;2.75;1.17;;;21.30;35.50;;;;;;5107105;28;20027;-37
2024/01/18 12:34:27;;;;;;;1.60;1.33;;;21.40;35.50;;;;;;5112771;28;20036;-38
2024/01/18 12:36:53;;;;;;;;;;;21.30;35.40;;;;;;5112781;28;20028;-38
2024/01/18 12:39:19;;;;;;;2.17;1.50;;;21.30;35.50;;;;;;5120792;28;19912;-37
2024/01/18 12:41:46;;;;;;;2.30;1.30;;;21.20;35.50;;;;;;5115627;28;20059;-38
2024/01/18 12:44:12;;;;;;;0.82;0.75;;;21.20;35.50;;;;;;5112220;28;20031;-38
2024/01/18 12:46:39;;;;;;;1.65;1.20;;;21.30;35.50;;;;;;5107369;28;20032;-35